Ana Sayfa
METAR-TAF:

METAR-TAF

Havaalanları :

Xi'an Xianyang Uluslararası Havalimanı

Xi'an, Çin

Enlem: 34-26N, Boylam: 108-45E, yükseklik: 479 m

Güncel hava durumu gözlemi

Rapor saat 22:00 UTC de 47 dakika önce yapıldı.
Rüzgar batı/güneybatıdan 4 kt
Sıcaklık 15°C
Nem 94%
Basınç 1017 hPa
Görüş mesafesi: 2000 m
Pus

METAR: ZLXY 202200Z 24002MPS 2000 BR NSC 15/14 Q1017 BECMG TL2340 3000

Saat: 06:47 (22:47 UTC)

Tahmin

Rapor saat 15:33 UTC de 7 saat ve 14 dakika önce yapıldı.
Ayın 20'si saat 18 UTC'den ayın 21'si saat 18 UTC'ye kadar geçerli Tahmin
Rüzgar batıdan 6 kt
Görüş mesafesi: 3000 m
Pus
Geçici
ayın 20'si saat 18 UTC'den ayın 20'si saat 24 UTC'ye kadar
Görüş mesafesi: 0700 m
sis

TAF: ZLXY 201533Z 2018/2118 27003MPS 3000 BR NSC TX26/2107Z TN14/2021Z TEMPO 2018/2024 0700 FG

4.000'den fazla havaalanı için hava durumu gözlemleri ve tahminleri (METAR ve TAF raporları).

Kullanılabilir istasyonlar harita üzerinde sarı ve kırmızı noktalarla gösterilir.

İstasyonun adını görmek için fareyi noktanın üzerinde gezdirin.

Sonrasında hava gözlem ve tahminlerini görmek için tıklayın.

Haritayı değiştirmek için: yaklaştırmak için siyah artı işaretli yeşil düğmeye ve uzaklaştırmak için de eksi işaretli düğmeye hızla tıklayın; bitişik haritalar için yeşil okları kullanın.


METAR-TAF: